Time;durP1;ratioP1;P1;durP2;ratioP2;P2;SDS_P1;SDS_P2;PMS_P1;PMS_P2;Temp;Humidity;BMP_temperature;BMP_pressure;BME280_temperature;BME280_humidity;BME280_pressure;Samples;Min_cycle;Max_cycle;Signal;HPM_P1;HPM_P2
2021/10/27 00:00:10;;;;;;;16.05;6.30;;;13.90;89.60;;;;;;5007957;28;20057;-70
2021/10/27 00:02:37;;;;;;;12.07;6.15;;;13.90;89.50;;;;;;5021510;28;20033;-69
2021/10/27 00:05:05;;;;;;;11.07;5.32;;;13.90;89.40;;;;;;5006105;28;20061;-73
2021/10/27 00:07:31;;;;;;;14.73;5.60;;;13.90;89.40;;;;;;5005476;28;20064;-68
2021/10/27 00:09:57;;;;;;;15.70;6.30;;;13.90;89.40;;;;;;5006483;28;20034;-69
2021/10/27 00:12:23;;;;;;;15.15;6.57;;;13.80;89.40;;;;;;5007677;28;20068;-69
2021/10/27 00:14:48;;;;;;;13.95;6.10;;;13.70;89.40;;;;;;5022293;28;20499;-69
2021/10/27 00:17:14;;;;;;;11.27;5.60;;;13.70;89.60;;;;;;5005479;28;20125;-69
2021/10/27 00:19:40;;;;;;;11.13;5.60;;;13.70;89.60;;;;;;5001483;28;20435;-69
2021/10/27 00:22:06;;;;;;;12.65;6.35;;;13.60;89.60;;;;;;5005278;28;20041;-68
2021/10/27 00:24:31;;;;;;;14.25;5.75;;;13.60;89.70;;;;;;5007827;28;20034;-68
2021/10/27 00:26:57;;;;;;;14.30;6.13;;;13.60;89.80;;;;;;5008473;28;20527;-68
2021/10/27 00:29:23;;;;;;;12.00;5.38;;;13.60;90.00;;;;;;5006287;28;20091;-70
2021/10/27 00:31:48;;;;;;;18.45;6.15;;;13.60;90.00;;;;;;5006744;28;20045;-69
2021/10/27 00:34:14;;;;;;;12.57;6.05;;;13.50;89.90;;;;;;5004865;28;20046;-69
2021/10/27 00:36:40;;;;;;;13.82;6.05;;;13.50;89.80;;;;;;5009242;28;20180;-68
2021/10/27 00:39:06;;;;;;;12.73;5.85;;;13.50;90.00;;;;;;5006628;28;20041;-68
2021/10/27 00:41:32;;;;;;;16.05;5.80;;;13.40;90.10;;;;;;5001477;28;20203;-68
2021/10/27 00:43:58;;;;;;;9.30;5.25;;;13.30;90.10;;;;;;5006654;28;20556;-68
2021/10/27 00:46:25;;;;;;;13.23;5.68;;;13.30;90.20;;;;;;5007404;28;20768;-68
2021/10/27 00:48:52;;;;;;;12.32;6.07;;;13.30;90.30;;;;;;5008148;28;20042;-69
2021/10/27 00:51:19;;;;;;;15.40;6.90;;;13.20;90.40;;;;;;5004335;28;20041;-69
2021/10/27 00:53:47;;;;;;;13.70;5.80;;;13.20;90.50;;;;;;5006270;28;20034;-68
2021/10/27 00:56:13;;;;;;;12.80;6.03;;;13.20;90.50;;;;;;5006262;28;20044;-69
2021/10/27 00:58:40;;;;;;;13.60;6.90;;;13.10;90.60;;;;;;5008044;28;20088;-68
2021/10/27 01:01:07;;;;;;;15.32;6.88;;;13.10;90.70;;;;;;5006296;28;20061;-68
2021/10/27 01:03:35;;;;;;;11.57;6.30;;;13.10;90.60;;;;;;5020868;28;20046;-70
2021/10/27 01:06:02;;;;;;;13.93;6.47;;;13.10;90.60;;;;;;5007935;28;20061;-70
2021/10/27 01:08:28;;;;;;;13.70;7.00;;;13.10;90.80;;;;;;5007116;28;20049;-70
2021/10/27 01:10:54;;;;;;;10.82;6.35;;;13.10;90.80;;;;;;5008609;28;20030;-70
2021/10/27 01:13:20;;;;;;;18.75;6.22;;;13.00;90.80;;;;;;5007121;28;20045;-69
2021/10/27 01:15:46;;;;;;;14.20;7.28;;;12.90;90.80;;;;;;5007390;28;20038;-73
2021/10/27 01:18:12;;;;;;;13.02;7.10;;;12.90;90.90;;;;;;5005551;28;20432;-69
2021/10/27 01:20:38;;;;;;;13.73;7.43;;;12.90;91.00;;;;;;5007740;28;20046;-68
2021/10/27 01:23:04;;;;;;;14.48;6.38;;;12.90;91.10;;;;;;5004599;28;20069;-70
2021/10/27 01:25:29;;;;;;;12.60;7.00;;;12.80;91.10;;;;;;5005879;28;20038;-69
2021/10/27 01:27:56;;;;;;;12.82;6.47;;;12.80;91.20;;;;;;5007732;28;20034;-69
2021/10/27 01:30:23;;;;;;;15.02;7.18;;;12.80;91.20;;;;;;5007025;28;20038;-71
2021/10/27 01:32:50;;;;;;;15.10;7.55;;;12.80;91.30;;;;;;5011517;28;20169;-70
2021/10/27 01:35:17;;;;;;;10.60;6.80;;;12.70;91.40;;;;;;5009711;28;20033;-72
2021/10/27 01:37:44;;;;;;;12.68;6.65;;;12.70;91.40;;;;;;5006357;28;20038;-70
2021/10/27 01:40:20;;;;;;;13.27;7.25;;;12.70;91.40;;;;;;5005710;28;20042;-69
2021/10/27 01:42:47;;;;;;;15.63;6.95;;;12.70;91.40;;;;;;5005730;28;20470;-69
2021/10/27 01:45:13;;;;;;;12.70;6.68;;;12.70;91.50;;;;;;5007889;28;20046;-71
2021/10/27 01:47:43;;;;;;;21.83;7.20;;;12.70;91.50;;;;;;5009673;28;20029;-69
2021/10/27 01:50:09;;;;;;;13.43;7.07;;;12.70;91.50;;;;;;5008605;28;20037;-69
2021/10/27 01:52:35;;;;;;;15.18;6.97;;;12.70;91.70;;;;;;5008478;28;20116;-73
2021/10/27 01:55:01;;;;;;;14.73;6.90;;;12.70;91.70;;;;;;5011210;28;20553;-71
2021/10/27 01:57:28;;;;;;;15.93;7.00;;;12.70;91.70;;;;;;5008032;28;20117;-71
2021/10/27 01:59:53;;;;;;;17.38;7.18;;;12.70;91.70;;;;;;5012030;28;20033;-69
2021/10/27 02:02:19;;;;;;;13.00;6.35;;;12.70;91.70;;;;;;5012604;28;20033;-69
2021/10/27 02:04:44;;;;;;;14.18;6.65;;;12.70;91.80;;;;;;5016420;28;20115;-69
2021/10/27 02:07:10;;;;;;;13.98;6.90;;;12.70;91.70;;;;;;5008978;28;20092;-70
2021/10/27 02:09:37;;;;;;;15.02;7.43;;;12.70;91.70;;;;;;5009482;28;20034;-71
2021/10/27 02:12:04;;;;;;;15.73;6.78;;;12.70;91.70;;;;;;5010655;28;20030;-69
2021/10/27 02:14:31;;;;;;;16.00;7.25;;;12.70;91.70;;;;;;5009190;28;20441;-71
2021/10/27 02:16:56;;;;;;;15.32;7.10;;;12.70;91.70;;;;;;5010189;28;20048;-69
2021/10/27 02:19:22;;;;;;;11.00;6.57;;;12.70;91.70;;;;;;5009183;28;20045;-74
2021/10/27 02:21:48;;;;;;;18.67;7.88;;;12.60;91.80;;;;;;5016539;28;20085;-69
2021/10/27 02:24:14;;;;;;;14.20;7.25;;;12.60;91.90;;;;;;5009866;28;20049;-70
2021/10/27 02:26:40;;;;;;;13.05;6.60;;;12.60;92.00;;;;;;5011763;28;20042;-71
2021/10/27 02:29:05;;;;;;;14.85;6.72;;;12.60;91.90;;;;;;5010529;28;20028;-69
2021/10/27 02:31:31;;;;;;;15.20;7.72;;;12.60;92.00;;;;;;5009653;28;20401;-73
2021/10/27 02:33:57;;;;;;;17.52;8.23;;;12.70;92.10;;;;;;5024431;28;20069;-69
2021/10/27 02:36:22;;;;;;;11.98;7.20;;;12.60;92.10;;;;;;5009397;28;20100;-69
2021/10/27 02:38:48;;;;;;;13.85;7.25;;;12.70;92.10;;;;;;5009821;28;20457;-69
2021/10/27 02:41:14;;;;;;;13.77;7.28;;;12.70;92.10;;;;;;5009113;28;20041;-71
2021/10/27 02:43:40;;;;;;;18.08;7.32;;;12.70;92.10;;;;;;5008032;28;20042;-69
2021/10/27 02:46:06;;;;;;;12.30;7.30;;;12.80;92.00;;;;;;5008837;28;20354;-72
2021/10/27 02:48:32;;;;;;;15.68;6.90;;;12.80;92.00;;;;;;5007055;28;20493;-69
2021/10/27 02:50:57;;;;;;;12.45;7.45;;;12.90;92.00;;;;;;5010554;28;20054;-69
2021/10/27 02:53:23;;;;;;;19.42;7.65;;;13.00;92.00;;;;;;5007764;28;20053;-69
2021/10/27 02:55:49;;;;;;;15.27;7.70;;;12.90;91.90;;;;;;5008973;28;20030;-69
2021/10/27 02:58:14;;;;;;;13.82;7.60;;;13.00;91.80;;;;;;5009601;28;20506;-72
2021/10/27 03:00:40;;;;;;;16.45;8.02;;;13.10;91.80;;;;;;5009128;28;20408;-70
2021/10/27 03:03:06;;;;;;;16.13;7.70;;;13.10;91.70;;;;;;5005965;28;20401;-70
2021/10/27 03:05:32;;;;;;;18.67;7.50;;;13.10;91.60;;;;;;5022519;28;20034;-69
2021/10/27 03:07:58;;;;;;;17.65;7.50;;;13.10;91.70;;;;;;5010199;28;20030;-69
2021/10/27 03:10:24;;;;;;;13.07;7.82;;;13.10;91.60;;;;;;5007360;28;20048;-70
2021/10/27 03:12:50;;;;;;;14.63;7.85;;;13.10;91.60;;;;;;5011618;28;20033;-72
2021/10/27 03:15:15;;;;;;;15.77;6.90;;;13.10;91.50;;;;;;5013966;28;20044;-70
2021/10/27 03:17:41;;;;;;;14.73;8.02;;;13.10;91.40;;;;;;5013483;28;20396;-70
2021/10/27 03:20:08;;;;;;;16.08;7.53;;;13.10;91.40;;;;;;5012771;28;20077;-68
2021/10/27 03:22:34;;;;;;;15.13;7.15;;;13.20;91.30;;;;;;5010002;28;20149;-69
2021/10/27 03:25:00;;;;;;;17.13;7.22;;;13.20;91.30;;;;;;5012058;28;20359;-68
2021/10/27 03:27:26;;;;;;;14.88;8.52;;;13.20;91.20;;;;;;5010420;28;20030;-69
2021/10/27 03:29:51;;;;;;;13.30;7.30;;;13.20;91.10;;;;;;5007417;28;20473;-68
2021/10/27 03:32:18;;;;;;;14.00;7.50;;;13.20;91.10;;;;;;5007215;28;20034;-70
2021/10/27 03:34:44;;;;;;;16.10;7.68;;;13.20;91.10;;;;;;5021775;28;20469;-68
2021/10/27 03:37:09;;;;;;;15.00;7.38;;;13.20;91.00;;;;;;5009850;28;20066;-68
2021/10/27 03:39:35;;;;;;;14.88;7.68;;;13.20;91.00;;;;;;5009444;28;20038;-68
2021/10/27 03:42:01;;;;;;;16.40;7.97;;;13.20;91.00;;;;;;5009356;28;20393;-69
2021/10/27 03:44:27;;;;;;;19.05;8.35;;;13.20;91.00;;;;;;5008643;28;20038;-68
2021/10/27 03:46:53;;;;;;;19.77;8.18;;;13.20;90.90;;;;;;5013750;28;20084;-68
2021/10/27 03:49:19;;;;;;;15.73;7.38;;;13.20;91.00;;;;;;5006984;28;20037;-69
2021/10/27 03:51:46;;;;;;;19.38;7.78;;;13.20;91.00;;;;;;5008095;28;20042;-68
2021/10/27 03:54:13;;;;;;;13.43;7.15;;;13.20;91.00;;;;;;5006578;28;20050;-68
2021/10/27 03:56:39;;;;;;;14.38;7.78;;;13.20;91.00;;;;;;5007364;28;20034;-68
2021/10/27 03:59:04;;;;;;;13.25;7.97;;;13.20;91.00;;;;;;5008121;28;20054;-68
2021/10/27 04:01:31;;;;;;;15.30;8.38;;;13.20;91.00;;;;;;5004979;28;20065;-72
2021/10/27 04:03:57;;;;;;;14.20;7.97;;;13.20;91.00;;;;;;5008312;28;20030;-70
2021/10/27 04:06:23;;;;;;;15.80;7.68;;;13.20;91.00;;;;;;5008156;28;20038;-68
2021/10/27 04:08:48;;;;;;;16.98;7.55;;;13.20;91.00;;;;;;5008213;28;20472;-68
2021/10/27 04:11:14;;;;;;;15.63;7.60;;;13.20;91.00;;;;;;5004288;28;20397;-69
2021/10/27 04:13:40;;;;;;;12.40;7.55;;;13.10;91.00;;;;;;5012041;28;20125;-70
2021/10/27 04:16:06;;;;;;;15.15;7.32;;;13.10;91.00;;;;;;5006930;28;20108;-70
2021/10/27 04:18:31;;;;;;;16.67;8.52;;;13.20;91.00;;;;;;5009201;28;20046;-68
2021/10/27 04:20:58;;;;;;;14.63;7.60;;;13.20;91.00;;;;;;5006798;28;20757;-69
2021/10/27 04:23:24;;;;;;;13.85;7.47;;;13.20;91.00;;;;;;5023422;28;20056;-68
2021/10/27 04:25:49;;;;;;;19.08;8.40;;;13.10;91.00;;;;;;5007092;28;20034;-71
2021/10/27 04:28:15;;;;;;;15.60;8.45;;;13.10;91.00;;;;;;5007448;28;20059;-70
2021/10/27 04:30:41;;;;;;;15.18;8.15;;;13.10;91.00;;;;;;5004082;28;20400;-68
2021/10/27 04:33:18;;;;;;;14.68;7.63;;;13.10;91.10;;;;;;5005002;28;20036;-70
2021/10/27 04:35:45;;;;;;;17.13;7.80;;;13.10;91.10;;;;;;5008136;28;20063;-70
2021/10/27 04:38:13;;;;;;;16.73;8.68;;;13.10;91.20;;;;;;5005832;28;20493;-68
2021/10/27 04:40:40;;;;;;;13.43;7.57;;;13.10;91.40;;;;;;5008700;28;20038;-69
2021/10/27 04:43:05;;;;;;;18.75;8.75;;;13.10;91.60;;;;;;5002451;28;20442;-69
2021/10/27 04:45:31;;;;;;;14.18;7.50;;;13.10;91.60;;;;;;5017206;28;20064;-68
2021/10/27 04:47:57;;;;;;;17.02;8.65;;;13.10;91.50;;;;;;5006597;28;20042;-69
2021/10/27 04:50:22;;;;;;;14.20;8.35;;;13.10;91.60;;;;;;5006765;28;20045;-69
2021/10/27 04:52:48;;;;;;;14.40;8.27;;;13.10;91.60;;;;;;5006214;28;20496;-69
2021/10/27 04:55:14;;;;;;;18.98;9.00;;;13.10;91.60;;;;;;5003255;28;20033;-69
2021/10/27 04:57:39;;;;;;;14.30;8.00;;;13.10;91.50;;;;;;5007171;28;20045;-71
2021/10/27 05:00:05;;;;;;;15.60;8.25;;;13.10;91.50;;;;;;5006574;28;20034;-69
2021/10/27 05:02:31;;;;;;;17.70;8.45;;;13.10;91.40;;;;;;5004134;28;20042;-70
2021/10/27 05:04:57;;;;;;;12.35;7.65;;;13.10;91.30;;;;;;5008530;28;20042;-68
2021/10/27 05:07:24;;;;;;;16.75;9.02;;;13.10;91.40;;;;;;5000355;28;20034;-69
2021/10/27 05:09:50;;;;;;;17.00;8.85;;;13.20;91.30;;;;;;5009602;28;20478;-69
2021/10/27 05:12:16;;;;;;;14.40;8.35;;;13.10;91.30;;;;;;5007209;28;20049;-71
2021/10/27 05:14:42;;;;;;;14.23;8.73;;;13.10;91.30;;;;;;5007343;28;20062;-68
2021/10/27 05:17:10;;;;;;;15.50;8.35;;;13.10;91.40;;;;;;5005520;28;20052;-69
2021/10/27 05:19:40;;;;;;;13.30;8.40;;;13.10;91.50;;;;;;5007019;28;20050;-69
2021/10/27 05:22:07;;;;;;;15.60;8.93;;;13.10;91.50;;;;;;5008482;28;20038;-68
2021/10/27 05:24:33;;;;;;;13.40;9.35;;;13.10;91.40;;;;;;5006832;28;20037;-73
2021/10/27 05:26:59;;;;;;;16.30;8.95;;;13.10;91.30;;;;;;5008402;28;20037;-68
2021/10/27 05:29:25;;;;;;;16.95;9.18;;;13.10;91.30;;;;;;5016949;28;20026;-69
2021/10/27 05:31:50;;;;;;;18.25;8.88;;;13.10;91.40;;;;;;5011558;28;20052;-70
2021/10/27 05:34:16;;;;;;;17.92;9.90;;;13.10;91.50;;;;;;5011523;28;20045;-69
2021/10/27 05:36:42;;;;;;;19.83;10.27;;;13.00;91.40;;;;;;5004241;28;20553;-71
2021/10/27 05:39:10;;;;;;;16.20;10.23;;;12.90;91.50;;;;;;5007663;28;20070;-69
2021/10/27 05:41:40;;;;;;;20.08;10.32;;;12.90;91.70;;;;;;5008682;28;20092;-68
2021/10/27 05:44:05;;;;;;;16.92;9.88;;;12.80;91.80;;;;;;5018339;28;20477;-70
2021/10/27 05:46:31;;;;;;;14.27;9.13;;;12.80;91.80;;;;;;5009727;28;20060;-68
2021/10/27 05:49:09;;;;;;;18.45;10.48;;;12.70;91.90;;;;;;5014480;28;20048;-67
2021/10/27 05:51:47;;;;;;;21.98;11.40;;;12.70;92.00;;;;;;5007701;28;20061;-67
2021/10/27 05:56:57;;;;;;;20.00;11.33;;;12.60;92.20;;;;;;5010616;28;20173;-67
2021/10/27 05:59:23;;;;;;;17.10;11.18;;;12.60;92.20;;;;;;5008936;28;20352;-66
2021/10/27 06:01:48;;;;;;;17.40;11.18;;;12.60;92.30;;;;;;5008547;28;20484;-67
2021/10/27 06:04:17;;;;;;;19.55;11.57;;;12.60;92.40;;;;;;5014657;28;20030;-67
2021/10/27 06:06:44;;;;;;;19.10;11.60;;;12.60;92.40;;;;;;5009996;28;20034;-71
2021/10/27 06:09:10;;;;;;;20.20;12.18;;;12.60;92.50;;;;;;5008569;28;20056;-71
2021/10/27 06:11:37;;;;;;;17.17;11.55;;;12.50;92.50;;;;;;5009547;28;20484;-67
2021/10/27 06:14:03;;;;;;;19.38;12.13;;;12.50;92.40;;;;;;5012208;28;20030;-68
2021/10/27 06:16:29;;;;;;;14.40;10.32;;;12.50;92.50;;;;;;5010122;28;20030;-68
2021/10/27 06:18:55;;;;;;;19.15;12.40;;;12.40;92.40;;;;;;5007662;28;20125;-67
2021/10/27 06:21:21;;;;;;;20.95;13.65;;;12.40;92.50;;;;;;5004361;28;20160;-66
2021/10/27 06:23:47;;;;;;;19.75;13.70;;;12.50;92.60;;;;;;5011038;28;20041;-67
2021/10/27 06:26:13;;;;;;;20.33;12.90;;;12.40;92.60;;;;;;5008181;28;20143;-67
2021/10/27 06:29:24;;;;;;;19.85;12.90;;;12.30;92.60;;;;;;5010336;28;20076;-67
2021/10/27 06:31:33;;;;;;;19.05;13.82;;;12.30;92.70;;;;;;5000588;28;20030;-70
2021/10/27 06:46:58;;;;;;;20.73;14.23;;;12.30;92.90;;;;;;5009037;28;20116;-69
2021/10/27 06:49:24;;;;;;;22.08;15.20;;;12.30;92.80;;;;;;5009919;28;20034;-67
2021/10/27 06:51:50;;;;;;;27.20;16.50;;;12.30;92.80;;;;;;5008572;28;20046;-67
2021/10/27 06:54:16;;;;;;;25.33;16.55;;;12.30;92.70;;;;;;5009168;28;20037;-69
2021/10/27 06:56:42;;;;;;;26.05;17.67;;;12.30;92.70;;;;;;5003960;28;20031;-67
2021/10/27 06:59:22;;;;;;;29.30;18.30;;;12.40;92.70;;;;;;5012737;28;20069;-72
2021/10/27 07:04:33;;;;;;;22.17;17.92;;;12.40;92.70;;;;;;5008594;28;20033;-69
2021/10/27 07:17:53;;;;;;;25.27;19.57;;;12.60;92.30;;;;;;5013071;28;20218;-66
2021/10/27 07:20:19;;;;;;;31.90;22.38;;;12.60;92.30;;;;;;5013816;28;20075;-68
2021/10/27 07:22:45;;;;;;;26.60;23.10;;;12.60;92.10;;;;;;5009114;28;20066;-68
2021/10/27 07:25:11;;;;;;;28.98;22.55;;;12.60;92.00;;;;;;5008225;28;20124;-67
2021/10/27 07:27:37;;;;;;;30.17;22.80;;;12.60;91.80;;;;;;5008437;28;20049;-70
2021/10/27 07:30:03;;;;;;;28.00;22.70;;;12.70;91.70;;;;;;5010719;28;20064;-72
2021/10/27 07:32:30;;;;;;;26.45;23.13;;;12.70;91.60;;;;;;5006945;28;20042;-67
2021/10/27 07:43:00;;;;;;;32.63;23.23;;;12.80;91.40;;;;;;5008800;28;20053;-70
2021/10/27 07:45:26;;;;;;;33.67;24.42;;;12.80;91.30;;;;;;5020060;28;20034;-68
2021/10/27 07:47:55;;;;;;;30.27;24.40;;;12.80;91.20;;;;;;5008137;28;20030;-67
2021/10/27 07:50:25;;;;;;;28.38;23.70;;;12.80;91.10;;;;;;5003116;28;20042;-67
2021/10/27 07:52:52;;;;;;;29.50;24.23;;;12.90;90.90;;;;;;5008271;28;20041;-70
2021/10/27 07:55:18;;;;;;;31.13;22.67;;;12.90;90.80;;;;;;5005854;28;20473;-69
2021/10/27 07:57:45;;;;;;;27.38;21.60;;;12.90;90.70;;;;;;5006903;28;20113;-68
2021/10/27 08:00:12;;;;;;;25.67;20.92;;;13.00;90.60;;;;;;5009086;28;20026;-69
2021/10/27 08:02:39;;;;;;;27.60;23.38;;;13.00;90.40;;;;;;5008659;28;20057;-68
2021/10/27 08:05:05;;;;;;;30.98;23.23;;;13.10;90.30;;;;;;5006819;28;20145;-69
2021/10/27 08:07:31;;;;;;;26.95;21.98;;;13.00;90.10;;;;;;5007923;28;20434;-73
2021/10/27 08:09:56;;;;;;;29.70;23.15;;;13.00;90.40;;;;;;5007573;28;20061;-70
2021/10/27 08:12:22;;;;;;;28.88;22.38;;;13.00;90.40;;;;;;5006573;28;20354;-67
2021/10/27 08:14:47;;;;;;;26.33;22.10;;;13.00;90.40;;;;;;5008587;28;20042;-67
2021/10/27 08:17:13;;;;;;;28.70;21.77;;;13.10;90.20;;;;;;5008199;28;20026;-68
2021/10/27 08:19:39;;;;;;;28.10;20.30;;;13.10;90.30;;;;;;5006453;28;20038;-70
2021/10/27 08:22:07;;;;;;;25.42;21.38;;;13.10;89.90;;;;;;5007352;28;20042;-68
2021/10/27 08:24:33;;;;;;;25.17;20.55;;;13.10;90.00;;;;;;5007635;28;20033;-74
2021/10/27 08:27:07;;;;;;;30.80;22.23;;;13.10;89.80;;;;;;5006732;28;20060;-68
2021/10/27 08:29:38;;;;;;;24.63;21.67;;;13.10;89.70;;;;;;5006699;28;20041;-70
2021/10/27 08:32:15;;;;;;;28.45;20.80;;;13.10;89.90;;;;;;5003381;28;20037;-69
2021/10/27 08:34:47;;;;;;;26.30;20.92;;;13.20;89.70;;;;;;5007070;28;20038;-68
2021/10/27 08:37:16;;;;;;;26.70;21.33;;;13.20;89.40;;;;;;5007024;28;20034;-71
2021/10/27 08:39:43;;;;;;;26.63;20.50;;;13.20;89.30;;;;;;4998209;28;22410;-67
2021/10/27 08:42:12;;;;;;;27.00;21.30;;;13.30;89.40;;;;;;5006942;28;20042;-68
2021/10/27 08:44:40;;;;;;;25.02;19.73;;;13.40;89.30;;;;;;5006479;28;20117;-71
2021/10/27 08:47:07;;;;;;;26.48;21.25;;;13.30;88.80;;;;;;5008322;28;20042;-68
2021/10/27 08:49:34;;;;;;;26.52;19.73;;;13.30;88.80;;;;;;5007779;28;20480;-68
2021/10/27 08:52:03;;;;;;;23.73;19.23;;;13.40;88.80;;;;;;5006836;28;20037;-67
2021/10/27 08:54:29;;;;;;;25.17;18.50;;;13.40;88.80;;;;;;5008261;28;20038;-67
2021/10/27 08:56:58;;;;;;;23.90;19.60;;;13.40;88.50;;;;;;5005313;28;20082;-67
2021/10/27 08:59:50;;;;;;;22.63;17.98;;;13.40;88.40;;;;;;5008347;28;20092;-70
2021/10/27 09:02:32;;;;;;;23.10;18.38;;;13.40;88.00;;;;;;5005082;28;20064;-67
2021/10/27 09:05:12;;;;;;;24.38;19.65;;;13.40;88.00;;;;;;5005233;28;20045;-67
2021/10/27 10:05:09;;;;;;;25.30;18.38;;;13.30;87.60;;;;;;5001622;28;20059;-68
2021/10/27 10:07:36;;;;;;;22.40;17.35;;;13.40;87.70;;;;;;5003945;28;20501;-68
2021/10/27 10:10:08;;;;;;;21.08;16.90;;;13.50;87.40;;;;;;5010144;28;20042;-68
2021/10/27 10:12:50;;;;;;;24.27;15.95;;;13.40;87.40;;;;;;5014708;28;20029;-67
2021/10/27 10:15:21;;;;;;;22.50;16.33;;;13.50;87.40;;;;;;5010258;28;20037;-68
2021/10/27 10:17:50;;;;;;;21.02;16.35;;;13.50;87.00;;;;;;5010088;28;20656;-68
2021/10/27 10:20:18;;;;;;;23.58;16.85;;;13.60;86.90;;;;;;5009513;28;20505;-70
2021/10/27 10:22:44;;;;;;;25.85;16.73;;;13.60;86.80;;;;;;5009934;28;20038;-72
2021/10/27 10:25:24;;;;;;;20.27;14.57;;;13.60;86.20;;;;;;5008443;28;20037;-68
2021/10/27 10:27:54;;;;;;;19.52;14.55;;;13.60;86.50;;;;;;5008939;28;20397;-68
2021/10/27 10:30:33;;;;;;;20.60;15.50;;;13.60;86.20;;;;;;5011406;28;20034;-67
2021/10/27 10:33:13;;;;;;;21.35;14.07;;;13.80;85.90;;;;;;5009998;28;20069;-68
2021/10/27 11:41:57;;;;;;;16.05;11.38;;;15.00;79.30;;;;;;5004548;28;20607;-69
2021/10/27 11:44:56;;;;;;;14.90;11.05;;;15.00;79.20;;;;;;5002255;28;20038;-68
2021/10/27 11:47:38;;;;;;;16.30;10.93;;;15.00;79.30;;;;;;5002835;28;20041;-69
2021/10/27 11:50:06;;;;;;;14.38;11.10;;;15.00;78.80;;;;;;5004957;28;20064;-68
2021/10/27 11:52:37;;;;;;;14.32;10.70;;;15.00;79.20;;;;;;5007228;28;20120;-68
2021/10/27 11:55:05;;;;;;;16.30;11.20;;;15.10;78.40;;;;;;5004940;28;20527;-69
2021/10/27 11:57:34;;;;;;;14.00;10.82;;;15.10;78.50;;;;;;5006646;28;20044;-70
2021/10/27 12:00:05;;;;;;;14.30;9.32;;;15.10;78.60;;;;;;5021062;28;20141;-68
2021/10/27 12:02:48;;;;;;;14.18;10.10;;;15.10;78.70;;;;;;5005809;28;20045;-68
2021/10/27 12:05:37;;;;;;;13.52;10.45;;;15.10;78.90;;;;;;5003176;28;20393;-69
2021/10/27 12:16:47;;;;;;;12.98;10.35;;;14.90;79.20;;;;;;4966670;28;20190;-74
2021/10/27 12:19:12;;;;;;;13.65;10.70;;;15.00;79.20;;;;;;4998163;28;20517;-69
2021/10/27 12:21:57;;;;;;;12.77;11.10;;;14.90;78.80;;;;;;5009243;28;20100;-69
2021/10/27 12:24:25;;;;;;;13.60;10.35;;;15.00;79.00;;;;;;5003916;28;20022;-70
2021/10/27 12:27:07;;;;;;;12.63;10.98;;;15.10;78.70;;;;;;5006634;28;20467;-70
2021/10/27 12:29:38;;;;;;;16.05;10.80;;;15.20;77.80;;;;;;5009712;28;20477;-73
2021/10/27 12:32:25;;;;;;;12.88;10.15;;;15.50;77.30;;;;;;5005795;28;20489;-76
2021/10/27 12:34:56;;;;;;;14.18;10.75;;;15.50;77.00;;;;;;5005437;28;20388;-73
2021/10/27 12:37:46;;;;;;;14.73;11.25;;;15.50;76.50;;;;;;5007951;28;20042;-72
2021/10/27 12:40:34;;;;;;;13.82;10.10;;;15.60;76.80;;;;;;5008178;28;20030;-70
2021/10/27 12:43:03;;;;;;;15.23;11.10;;;15.50;76.90;;;;;;5008155;28;20065;-70
2021/10/27 12:45:41;;;;;;;12.95;9.75;;;15.50;76.60;;;;;;5009652;28;20042;-71
2021/10/27 12:48:19;;;;;;;13.38;10.38;;;15.50;76.50;;;;;;5009678;28;20065;-71
2021/10/27 12:51:11;;;;;;;15.80;11.63;;;15.40;76.60;;;;;;5004194;28;20070;-70
2021/10/27 12:53:46;;;;;;;13.13;10.65;;;15.40;77.10;;;;;;5009224;28;20117;-71
2021/10/27 12:56:34;;;;;;;13.98;10.75;;;15.30;76.90;;;;;;5005326;28;20037;-71
2021/10/27 12:59:11;;;;;;;13.23;10.85;;;15.30;77.20;;;;;;5008693;28;20373;-72
2021/10/27 13:30:16;;;;;;;10.10;8.18;;;15.50;75.80;;;;;;5013181;28;20052;-72
2021/10/27 13:32:52;;;;;;;11.90;8.25;;;15.40;76.60;;;;;;5007456;28;20034;-71
2021/10/27 13:35:18;;;;;;;13.07;8.10;;;15.40;76.70;;;;;;5006007;28;20152;-74
2021/10/27 13:37:44;;;;;;;10.70;8.30;;;15.40;76.00;;;;;;5006695;28;20041;-70
2021/10/27 13:40:11;;;;;;;11.57;8.15;;;15.40;75.80;;;;;;5007713;28;20030;-71
2021/10/27 13:42:56;;;;;;;13.38;8.30;;;15.50;75.90;;;;;;5010754;28;20551;-72
2021/10/27 13:58:46;;;;;;;13.55;8.48;;;15.50;75.50;;;;;;5009036;28;20036;-71
2021/10/27 14:14:34;;;;;;;14.90;11.25;;;15.50;76.00;;;;;;5008841;28;20034;-72
2021/10/27 15:28:04;;;;;;;11.40;6.38;;;15.20;77.90;;;;;;5012433;28;20503;-70
2021/10/27 15:36:20;;;;;;;11.30;7.43;;;15.10;79.00;;;;;;5010271;28;20040;-71
2021/10/27 15:44:15;;;;;;;12.77;7.50;;;15.00;79.60;;;;;;5007632;28;20034;-69
2021/10/27 15:52:14;;;;;;;13.18;7.80;;;14.80;80.50;;;;;;5006576;28;20044;-72
2021/10/27 15:54:43;;;;;;;12.73;7.65;;;14.70;81.00;;;;;;5007802;28;20029;-70
2021/10/27 15:57:10;;;;;;;12.43;7.60;;;14.60;81.30;;;;;;5010232;28;20041;-72
2021/10/27 15:59:37;;;;;;;12.00;7.85;;;14.60;81.60;;;;;;5010707;28;20041;-72
2021/10/27 16:02:03;;;;;;;14.52;8.52;;;14.50;81.90;;;;;;5005251;28;20595;-71
2021/10/27 16:04:29;;;;;;;12.88;7.90;;;14.50;81.90;;;;;;5008445;28;20038;-69
2021/10/27 16:06:56;;;;;;;13.35;8.73;;;14.40;82.10;;;;;;5007473;28;20030;-69
2021/10/27 16:09:44;;;;;;;13.77;8.23;;;14.30;82.40;;;;;;5010827;28;20141;-71
2021/10/27 16:12:11;;;;;;;11.30;8.48;;;14.30;82.70;;;;;;5009361;28;20096;-70
2021/10/27 16:14:37;;;;;;;13.75;8.73;;;14.20;82.90;;;;;;5008868;28;20062;-70
2021/10/27 16:17:03;;;;;;;11.63;8.43;;;14.20;83.20;;;;;;5007298;28;20029;-69
2021/10/27 16:19:29;;;;;;;13.20;8.98;;;14.10;83.50;;;;;;5009982;28;20049;-70
2021/10/27 16:21:56;;;;;;;15.32;8.88;;;14.00;83.80;;;;;;5008308;28;20046;-70
2021/10/27 16:24:25;;;;;;;13.45;8.77;;;13.90;84.00;;;;;;5007616;28;20346;-71
2021/10/27 16:26:52;;;;;;;15.48;9.45;;;13.90;84.20;;;;;;5009788;28;20440;-72
2021/10/27 16:29:18;;;;;;;13.63;9.30;;;13.80;84.60;;;;;;5006687;28;20017;-75
2021/10/27 16:31:44;;;;;;;13.90;9.20;;;13.80;84.80;;;;;;5012758;28;20412;-71
2021/10/27 16:34:10;;;;;;;17.77;9.57;;;13.70;84.80;;;;;;5004462;28;20061;-73
2021/10/27 16:36:36;;;;;;;14.45;11.63;;;13.60;85.10;;;;;;5007045;28;20049;-69
2021/10/27 16:39:04;;;;;;;16.25;11.95;;;13.60;85.40;;;;;;5007100;28;20023;-71
2021/10/27 16:41:30;;;;;;;16.08;11.27;;;13.60;85.60;;;;;;5004471;28;20422;-71
2021/10/27 16:43:57;;;;;;;17.90;11.55;;;13.50;85.90;;;;;;5004511;28;20030;-71
2021/10/27 16:46:22;;;;;;;14.98;11.27;;;13.50;86.10;;;;;;5002552;28;20034;-75
2021/10/27 16:48:50;;;;;;;15.15;10.57;;;13.50;86.10;;;;;;5004002;28;20048;-74
2021/10/27 16:51:16;;;;;;;19.50;12.40;;;13.40;86.20;;;;;;5020683;28;20126;-70
2021/10/27 16:53:42;;;;;;;19.10;12.13;;;13.30;86.40;;;;;;5004925;28;20121;-69
2021/10/27 16:56:08;;;;;;;13.95;10.73;;;13.30;86.70;;;;;;5003197;28;20128;-70
2021/10/27 16:58:33;;;;;;;17.08;11.80;;;13.20;86.70;;;;;;5005812;28;20038;-71
2021/10/27 17:01:00;;;;;;;15.00;11.95;;;13.10;86.80;;;;;;5006410;28;20117;-69
2021/10/27 17:03:26;;;;;;;16.38;12.25;;;13.10;87.20;;;;;;5004241;28;20046;-71
2021/10/27 17:05:51;;;;;;;17.38;13.05;;;13.10;87.30;;;;;;5003897;28;20069;-70
2021/10/27 17:08:17;;;;;;;18.63;12.75;;;13.00;87.40;;;;;;5000719;28;20062;-77
2021/10/27 17:10:44;;;;;;;17.67;12.90;;;13.00;87.50;;;;;;5005951;28;20116;-73
2021/10/27 17:13:11;;;;;;;18.70;13.05;;;12.90;87.70;;;;;;5002413;28;20088;-75
2021/10/27 17:15:38;;;;;;;18.83;13.65;;;12.90;87.70;;;;;;5004407;28;20417;-73
2021/10/27 17:18:04;;;;;;;17.98;13.18;;;12.80;87.80;;;;;;5004044;28;20046;-73
2021/10/27 17:20:29;;;;;;;20.65;15.00;;;12.80;87.80;;;;;;5007839;28;20033;-73
2021/10/27 17:23:01;;;;;;;19.35;14.05;;;12.70;87.90;;;;;;5008808;28;20610;-73
2021/10/27 17:25:28;;;;;;;23.92;15.70;;;12.70;88.00;;;;;;5014278;28;20041;-75
2021/10/27 17:27:55;;;;;;;21.63;16.08;;;12.70;88.10;;;;;;5006608;28;20478;-73
2021/10/27 17:30:22;;;;;;;19.75;15.77;;;12.60;88.20;;;;;;5013061;28;20107;-72
2021/10/27 17:32:49;;;;;;;20.52;15.98;;;12.60;88.30;;;;;;5014516;28;20384;-73
2021/10/27 17:35:17;;;;;;;21.55;16.27;;;12.60;88.40;;;;;;5012360;28;20477;-72
2021/10/27 17:37:49;;;;;;;21.83;16.13;;;12.50;88.50;;;;;;5018421;28;20042;-74
2021/10/27 17:40:23;;;;;;;22.88;18.15;;;12.50;88.60;;;;;;5007109;28;20033;-73
2021/10/27 17:42:49;;;;;;;;;;;12.40;88.70;;;;;;5015644;28;20129;-75
2021/10/27 17:45:21;;;;;;;23.42;17.73;;;12.40;88.90;;;;;;5009285;28;19920;-73
2021/10/27 17:47:52;;;;;;;22.80;18.55;;;12.40;88.90;;;;;;5011718;28;20038;-74
2021/10/27 17:51:19;;;;;;;21.42;16.75;;;12.30;89.00;;;;;;5011395;28;20556;-72